Kezdőlap
METAR-TAF:

METAR-TAF

Repülőterek :

Belgorod, Oroszország

földrajzi szélesség: 50-38-36N, földrajzi hosszúság: 036-35-24E, magasság: 224 m

Jelenlegi meteorológiai megfigyelések

A jelentés 29 perccel ezelõtt készült, 04:00 UTC
Nyugat-délnyugati szél 4 kt
Hőmérséklet -11°C
Páratartalom 85%
Légköri nyomás 1022 hPa
Látótávolság: 9000 m

METAR: UUOB 200400Z 25002MPS 9000 NSC M11/M13 Q1022 R29/810350 NOSIG

Idő: 07:29 (04:29 UTC)

Előrejelzés

A jelentés 2 órával és 29 perccel ezelõtt készült, 02:00 UTC
Az előrejelzés 20-én 03 óra UTC és 20-én 12 óra UTC között érvényes
Nyugati szél 6 kt
Látótávolság 10 km, vagy több
felhőtlen 1500 m magasságban, és nincs gomolyfelhõ

TAF: UUOB 200200Z 2003/2012 26003MPS CAVOK

Meteorológiai megfigyelések és előrejelzések több, mint 4000 repülőtéren (METAR és TAF jelentéseket).

A térképen piros és sárga pontok jelzik az elérhető meteorológiai állomásokat.

Mozgassa az egeret a pont fölött, hogy megjelenjen az állomás neve.

Azután kattintson az időjárási megfigyelések és előrejelzések megtekintéséhez.

A térkép megváltoztatása: kattintson a fekete keresztel jelölt zöld gombra ráközelítéshez, a vonallal jelölt zöld gombra távolításhoz, vagy a zöld nyilakra a szomszédos térképek eléréséhez.


METAR-TAF: